Main page
METAR-TAF:

METAR-TAF

Airports :

Rodez–Aveyron Airport

Rodez, France

latitude: 44-24N, longitude: 002-29E, elevation: 581 m

Current weather observation

The report was made 27 minutes ago, at 20:30 UTC
Wind 10 kt from the North, varying between Northwest and North/Northeast
Temperature 0°C
Humidity 69%
Pressure 1030 hPa
Visibility 10 km or more
no clouds below 1500 m and no cumulonimbus

METAR: LFCR 212030Z AUTO 35010KT 320V020 CAVOK M00/M05 Q1030 NOSIG

Time: 21:57 (20:57 UTC)

Forecast

The report was made 3 hours and 57 minutes ago, at 17:00 UTC
Forecast valid from 21 at 18 UTC to 22 at 18 UTC
Wind 10 kt from the North/Northeast
Visibility 10 km or more
no clouds below 1500 m and no cumulonimbus

TAF: LFCR 211700Z 2118/2218 02010KT CAVOK

Weather observations and forecasts of more than 4000 airports (METAR and TAF reports).

The available stations are represented by yellow and red dots on the map.

Hover mouse over dot to see the name of the station.

Then click to see weather observations and forecasts.

To change the map : click on the green buttons with a black cross to zoom in, on the green button with a dash to zoom out, or on the green arrows for adjacent maps.


METAR-TAF: